Time;durP1;ratioP1;P1;durP2;ratioP2;P2;SDS_P1;SDS_P2;PMS_P1;PMS_P2;Temp;Humidity;BMP_temperature;BMP_pressure;BME280_temperature;BME280_humidity;BME280_pressure;Samples;Min_cycle;Max_cycle;Signal;HPM_P1;HPM_P2
2022/01/07 00:01:03;;;;;;;26.77;16.93;;;1.10;1.00;;;;;;5072905;28;20642;-73
2022/01/07 00:03:31;;;;;;;23.93;15.90;;;1.10;1.00;;;;;;5072638;28;20209;-73
2022/01/07 00:05:59;;;;;;;27.50;17.30;;;1.10;1.00;;;;;;5072723;28;20620;-74
2022/01/07 00:08:26;;;;;;;29.03;19.00;;;1.20;1.00;;;;;;5072262;28;20768;-74
2022/01/07 00:10:53;;;;;;;26.23;17.57;;;1.30;1.00;;;;;;5072719;28;20782;-76
2022/01/07 00:13:21;;;;;;;22.93;16.60;;;1.40;1.00;;;;;;5072872;28;20665;-73
2022/01/07 00:15:49;;;;;;;23.60;17.03;;;1.40;1.00;;;;;;5072715;28;20288;-73
2022/01/07 00:18:16;;;;;;;25.43;17.37;;;1.50;1.00;;;;;;5072551;28;20202;-73
2022/01/07 00:20:44;;;;;;;20.97;16.03;;;1.50;1.00;;;;;;5071765;28;20688;-74
2022/01/07 00:23:11;;;;;;;20.00;14.53;;;1.40;1.00;;;;;;5072286;28;20198;-83
2022/01/07 00:25:38;;;;;;;20.53;13.67;;;1.40;1.00;;;;;;5072246;28;20266;-74
2022/01/07 00:28:05;;;;;;;21.07;13.07;;;1.40;1.00;;;;;;5072146;28;20677;-73
2022/01/07 00:30:33;;;;;;;18.37;13.10;;;1.40;1.00;;;;;;5072057;28;20230;-77
2022/01/07 00:33:01;;;;;;;17.87;11.73;;;3.00;1.00;;;;;;5072148;28;20289;-73
2022/01/07 00:35:28;;;;;;;21.50;11.50;;;1.30;1.00;;;;;;5071615;28;20719;-73
2022/01/07 00:37:55;;;;;;;12.47;9.67;;;1.40;1.00;;;;;;5072365;28;20256;-74
2022/01/07 00:40:24;;;;;;;14.87;9.87;;;1.30;1.00;;;;;;5072589;28;20211;-73
2022/01/07 00:42:51;;;;;;;12.67;9.33;;;1.40;1.00;;;;;;5072145;28;20735;-72
2022/01/07 00:45:19;;;;;;;12.83;9.43;;;1.20;1.00;;;;;;5072115;28;20209;-73
2022/01/07 00:47:46;;;;;;;13.03;9.93;;;1.00;1.00;;;;;;5071386;28;20677;-72
2022/01/07 00:50:17;;;;;;;16.17;9.87;;;1.00;1.00;;;;;;5071696;28;20229;-73
2022/01/07 00:52:44;;;;;;;15.23;11.07;;;0.80;1.00;;;;;;5070846;28;20208;-74
2022/01/07 00:55:12;;;;;;;14.57;10.40;;;0.70;1.00;;;;;;5071908;28;20212;-83
2022/01/07 00:57:39;;;;;;;17.30;9.47;;;0.70;1.00;;;;;;5071155;28;20679;-74
2022/01/07 01:00:09;;;;;;;13.43;9.60;;;0.70;1.00;;;;;;5071814;28;20202;-73
2022/01/07 01:02:37;;;;;;;14.90;10.50;;;0.80;1.00;;;;;;5071234;28;20724;-73
2022/01/07 01:05:05;;;;;;;13.97;9.10;;;0.90;1.00;;;;;;5071524;28;20202;-77
2022/01/07 01:07:33;;;;;;;15.07;10.20;;;0.90;1.00;;;;;;5071166;28;20205;-72
2022/01/07 01:10:01;;;;;;;11.60;8.93;;;0.90;1.00;;;;;;5071466;28;20207;-72
2022/01/07 01:12:28;;;;;;;13.57;10.63;;;0.90;1.00;;;;;;5070990;28;20200;-73
2022/01/07 01:14:55;;;;;;;13.77;9.07;;;0.80;1.00;;;;;;5071448;28;20247;-73
2022/01/07 01:17:22;;;;;;;15.63;8.87;;;0.80;1.00;;;;;;5071891;28;20202;-75
2022/01/07 01:19:49;;;;;;;13.57;8.67;;;0.80;1.00;;;;;;5071311;28;20275;-73
2022/01/07 01:22:16;;;;;;;14.17;9.43;;;0.80;1.00;;;;;;5071442;28;20634;-82
2022/01/07 01:24:45;;;;;;;14.87;9.57;;;0.80;1.00;;;;;;5070862;28;20213;-73
2022/01/07 01:27:12;;;;;;;15.07;9.77;;;0.70;1.00;;;;;;5071112;28;20202;-81
2022/01/07 01:29:39;;;;;;;14.50;9.30;;;0.80;1.00;;;;;;5070671;28;20206;-72
2022/01/07 01:32:06;;;;;;;13.83;9.93;;;0.70;1.00;;;;;;5071319;28;20641;-72
2022/01/07 01:34:33;;;;;;;15.10;8.80;;;0.50;1.00;;;;;;5070948;28;20248;-72
2022/01/07 01:37:00;;;;;;;14.13;9.30;;;0.50;1.00;;;;;;5071101;28;20244;-72
2022/01/07 01:39:27;;;;;;;15.40;10.33;;;0.60;1.00;;;;;;5070775;28;20247;-81
2022/01/07 01:41:57;;;;;;;17.70;12.73;;;0.60;1.00;;;;;;5070724;28;20259;-73
2022/01/07 01:44:24;;;;;;;17.03;11.17;;;0.50;1.00;;;;;;5070690;28;20226;-73
2022/01/07 01:46:51;;;;;;;13.23;9.50;;;0.50;1.00;;;;;;5071381;28;20673;-73
2022/01/07 01:49:18;;;;;;;14.57;8.90;;;0.40;1.00;;;;;;5071582;28;20212;-86
2022/01/07 01:51:46;;;;;;;11.73;7.50;;;0.50;1.00;;;;;;5070798;28;20234;-73
2022/01/07 01:54:13;;;;;;;11.63;6.90;;;0.50;1.00;;;;;;5070921;28;20202;-74
2022/01/07 01:56:41;;;;;;;11.13;6.67;;;0.60;1.00;;;;;;5070134;28;20259;-84
2022/01/07 01:59:09;;;;;;;11.77;6.93;;;1.30;1.00;;;;;;5070929;28;20198;-84
2022/01/07 02:01:38;;;;;;;15.07;7.33;;;0.50;1.00;;;;;;5070778;28;20249;-74
2022/01/07 02:04:05;;;;;;;9.90;7.17;;;0.30;1.00;;;;;;5070441;28;20662;-74
2022/01/07 02:06:32;;;;;;;11.80;6.70;;;0.30;1.00;;;;;;5070536;28;20202;-86
2022/01/07 02:08:59;;;;;;;9.77;6.10;;;0.30;1.00;;;;;;5070565;28;20252;-84
2022/01/07 02:11:26;;;;;;;9.70;6.50;;;0.40;1.00;;;;;;5069952;28;20645;-73
2022/01/07 02:13:56;;;;;;;9.03;6.40;;;0.40;1.00;;;;;;5071029;28;20198;-74
2022/01/07 02:16:26;;;;;;;11.30;7.07;;;0.40;1.00;;;;;;5071061;28;20599;-75
2022/01/07 02:18:54;;;;;;;8.90;6.27;;;0.30;1.00;;;;;;5070802;28;20243;-74
2022/01/07 02:21:24;;;;;;;7.70;6.00;;;0.40;1.00;;;;;;5070941;28;20552;-74
2022/01/07 02:23:51;;;;;;;10.13;5.70;;;0.30;1.00;;;;;;5071486;28;20331;-75
2022/01/07 02:26:19;;;;;;;12.20;6.23;;;0.30;1.00;;;;;;5071050;28;20210;-84
2022/01/07 02:28:49;;;;;;;9.60;5.60;;;0.20;1.00;;;;;;5070385;28;20203;-74
2022/01/07 02:31:16;;;;;;;11.00;6.63;;;0.30;1.00;;;;;;5070629;28;20704;-74
2022/01/07 02:33:43;;;;;;;10.03;6.20;;;0.30;1.00;;;;;;5070608;28;20390;-74
2022/01/07 02:36:11;;;;;;;7.70;5.37;;;0.30;1.00;;;;;;5070688;28;20225;-75
2022/01/07 02:38:39;;;;;;;7.20;5.57;;;0.20;1.00;;;;;;5070542;28;20202;-73
2022/01/07 02:41:06;;;;;;;12.47;5.40;;;0.30;1.00;;;;;;5070386;28;20609;-73
2022/01/07 02:43:33;;;;;;;9.67;6.40;;;0.20;1.00;;;;;;5070048;28;20210;-73
2022/01/07 02:46:00;;;;;;;10.57;5.97;;;0.20;1.00;;;;;;5070352;28;20613;-81
2022/01/07 02:48:27;;;;;;;9.50;5.80;;;0.20;1.00;;;;;;5070097;28;20202;-78
2022/01/07 02:50:54;;;;;;;9.80;5.17;;;0.20;1.00;;;;;;5070055;28;20697;-74
2022/01/07 02:53:21;;;;;;;10.47;6.17;;;0.20;1.00;;;;;;5071519;28;20670;-80
2022/01/07 02:55:50;;;;;;;7.97;6.27;;;0.10;1.00;;;;;;5070527;28;20260;-76
2022/01/07 02:58:18;;;;;;;10.30;6.70;;;0.10;1.00;;;;;;5070304;28;20198;-77
2022/01/07 03:00:45;;;;;;;10.60;5.47;;;0.10;1.00;;;;;;5069781;28;20218;-78
2022/01/07 03:03:12;;;;;;;8.00;6.03;;;0.10;1.00;;;;;;5070169;28;20237;-73
2022/01/07 03:05:41;;;;;;;10.07;8.50;;;0.10;1.00;;;;;;5069990;28;20198;-73
2022/01/07 03:08:09;;;;;;;16.80;10.07;;;0.10;1.00;;;;;;5069856;28;20209;-74
2022/01/07 03:10:36;;;;;;;18.13;10.23;;;0.10;1.00;;;;;;5069751;28;20202;-73
2022/01/07 03:13:05;;;;;;;14.47;10.80;;;0.10;1.00;;;;;;5070308;28;20285;-79
2022/01/07 03:15:34;;;;;;;17.73;11.67;;;0.10;1.00;;;;;;5069787;28;20268;-71
2022/01/07 03:18:02;;;;;;;14.87;9.73;;;0.10;1.00;;;;;;5073172;28;20205;-71
2022/01/07 03:20:29;;;;;;;12.33;9.27;;;0.00;1.00;;;;;;5073053;28;20657;-71
2022/01/07 03:22:56;;;;;;;13.93;9.77;;;0.00;1.00;;;;;;5073537;28;20206;-78
2022/01/07 03:25:24;;;;;;;13.10;8.87;;;0.00;1.00;;;;;;5073700;28;20685;-71
2022/01/07 03:27:51;;;;;;;15.77;9.77;;;0.00;1.00;;;;;;5074774;28;20624;-71
2022/01/07 03:30:20;;;;;;;14.27;9.27;;;-0.10;1.00;;;;;;5074783;28;20210;-71
2022/01/07 03:32:47;;;;;;;19.27;9.70;;;-0.10;1.00;;;;;;5072807;28;20704;-71
2022/01/07 03:35:14;;;;;;;17.83;9.77;;;-0.10;1.00;;;;;;5073482;28;20239;-71
2022/01/07 03:37:43;;;;;;;14.33;8.70;;;-0.10;1.00;;;;;;5072786;28;20252;-71
2022/01/07 03:40:13;;;;;;;13.20;9.33;;;-0.10;1.00;;;;;;5073143;28;20688;-81
2022/01/07 03:42:40;;;;;;;15.63;8.80;;;-0.10;1.00;;;;;;5072709;28;20327;-73
2022/01/07 03:45:09;;;;;;;13.90;9.97;;;-0.10;1.00;;;;;;5072691;28;20214;-80
2022/01/07 03:47:38;;;;;;;9.40;7.17;;;-0.10;1.00;;;;;;5072859;28;20257;-72
2022/01/07 03:50:06;;;;;;;12.40;7.57;;;-0.10;1.00;;;;;;5073018;28;20731;-74
2022/01/07 03:52:33;;;;;;;8.63;7.43;;;-0.10;1.00;;;;;;5072405;28;20240;-79
2022/01/07 03:55:00;;;;;;;17.03;8.57;;;-0.10;1.00;;;;;;5073119;28;20202;-72
2022/01/07 03:57:27;;;;;;;10.80;8.20;;;0.00;1.00;;;;;;5072330;28;20731;-80
2022/01/07 03:59:54;;;;;;;13.40;7.87;;;0.00;1.00;;;;;;5072852;28;20617;-72
2022/01/07 04:02:21;;;;;;;12.30;8.17;;;0.10;1.00;;;;;;5073330;28;20206;-72
2022/01/07 04:04:50;;;;;;;11.83;7.73;;;0.30;1.00;;;;;;5072979;28;20256;-73
2022/01/07 04:07:17;;;;;;;11.60;7.63;;;0.40;1.00;;;;;;5072723;28;20198;-77
2022/01/07 04:09:44;;;;;;;11.93;6.60;;;0.50;1.00;;;;;;5072321;28;20211;-73
2022/01/07 04:12:11;;;;;;;10.80;6.33;;;0.60;1.00;;;;;;5072492;28;20279;-73
2022/01/07 04:14:38;;;;;;;9.40;6.70;;;0.60;1.00;;;;;;5072443;28;20252;-73
2022/01/07 04:17:07;;;;;;;12.00;7.50;;;0.80;1.00;;;;;;5072727;28;20239;-73
2022/01/07 04:19:34;;;;;;;13.90;7.83;;;0.80;1.00;;;;;;5071915;28;20616;-80
2022/01/07 04:22:03;;;;;;;12.30;7.07;;;0.70;1.00;;;;;;5072279;28;20665;-73
2022/01/07 04:24:30;;;;;;;14.67;8.87;;;0.70;1.00;;;;;;5071963;28;20819;-72
2022/01/07 04:26:57;;;;;;;18.87;8.53;;;0.80;1.00;;;;;;5072154;28;20630;-73
2022/01/07 04:29:24;;;;;;;11.93;6.83;;;0.80;1.00;;;;;;5072521;28;20604;-73
2022/01/07 04:31:51;;;;;;;9.60;6.23;;;1.00;1.00;;;;;;5072856;28;20230;-74
2022/01/07 04:34:18;;;;;;;10.50;6.47;;;0.70;1.00;;;;;;5072944;28;20259;-75
2022/01/07 04:36:45;;;;;;;9.80;6.20;;;0.40;1.00;;;;;;5073781;28;20256;-82
2022/01/07 04:39:13;;;;;;;14.83;6.87;;;0.60;1.00;;;;;;5073001;28;20210;-74
2022/01/07 04:41:40;;;;;;;12.10;5.80;;;0.50;1.00;;;;;;5072356;28;20613;-82
2022/01/07 04:44:07;;;;;;;11.80;6.57;;;0.60;1.00;;;;;;5073343;28;20263;-73
2022/01/07 04:46:34;;;;;;;14.47;8.20;;;0.70;1.00;;;;;;5072136;28;20206;-73
2022/01/07 04:49:01;;;;;;;10.20;6.03;;;0.80;1.00;;;;;;5072920;28;20202;-73
2022/01/07 04:51:29;;;;;;;10.90;6.77;;;0.80;1.00;;;;;;5074075;28;20641;-73
2022/01/07 04:53:56;;;;;;;10.03;5.53;;;0.90;1.00;;;;;;5072403;28;20571;-74
2022/01/07 04:56:25;;;;;;;9.20;6.77;;;1.00;1.00;;;;;;5071627;28;20260;-73
2022/01/07 04:58:52;;;;;;;8.40;7.17;;;1.10;1.00;;;;;;5072175;28;20202;-76
2022/01/07 05:01:19;;;;;;;8.43;5.70;;;1.10;1.00;;;;;;5072094;28;20251;-73
2022/01/07 05:03:45;;;;;;;10.57;7.00;;;1.10;1.00;;;;;;5071066;28;20214;-72
2022/01/07 05:06:41;;;;;;;12.90;7.80;;;1.10;1.00;;;;;;5071631;28;20668;-80
2022/01/07 05:09:01;;;;;;;8.13;5.53;;;1.10;1.00;;;;;;5071460;28;20198;-81
2022/01/07 05:11:29;;;;;;;10.93;5.97;;;1.00;1.00;;;;;;5071310;28;20233;-72
2022/01/07 05:13:56;;;;;;;12.30;6.67;;;0.90;1.00;;;;;;5071415;28;20225;-78
2022/01/07 05:16:26;;;;;;;12.57;6.63;;;0.90;1.00;;;;;;5071651;28;20202;-72
2022/01/07 05:18:54;;;;;;;10.07;6.47;;;0.90;1.00;;;;;;5071105;28;20222;-71
2022/01/07 05:21:21;;;;;;;7.33;5.57;;;0.80;1.00;;;;;;5071886;28;20202;-71
2022/01/07 05:23:47;;;;;;;10.33;5.40;;;1.00;1.00;;;;;;5071400;28;20252;-82
2022/01/07 05:26:15;;;;;;;11.23;6.03;;;1.00;1.00;;;;;;5071561;28;20637;-84
2022/01/07 05:28:43;;;;;;;5.73;4.47;;;1.10;1.00;;;;;;5071065;28;20661;-72
2022/01/07 05:31:10;;;;;;;8.87;5.50;;;1.10;1.00;;;;;;5071324;28;20202;-73
2022/01/07 05:33:37;;;;;;;9.97;5.93;;;1.00;1.00;;;;;;5070614;28;20202;-73
2022/01/07 05:36:04;;;;;;;10.37;5.53;;;1.00;1.00;;;;;;5071384;28;20248;-85
2022/01/07 05:38:31;;;;;;;8.93;5.30;;;1.00;1.00;;;;;;5070658;28;20279;-71
2022/01/07 05:40:58;;;;;;;8.80;5.93;;;0.90;1.00;;;;;;5070802;28;20667;-83
2022/01/07 05:43:26;;;;;;;7.50;5.30;;;0.90;1.00;;;;;;5070614;28;20214;-72
2022/01/07 05:45:55;;;;;;;13.20;7.07;;;0.90;1.00;;;;;;5071408;28;20217;-73
2022/01/07 05:48:22;;;;;;;9.33;6.03;;;0.90;1.00;;;;;;5071488;28;20259;-72
2022/01/07 05:50:49;;;;;;;8.27;5.43;;;1.10;1.00;;;;;;5070799;28;20209;-72
2022/01/07 05:53:16;;;;;;;12.00;5.97;;;1.10;1.00;;;;;;5071568;28;20287;-80
2022/01/07 05:55:43;;;;;;;10.07;5.17;;;1.10;1.00;;;;;;5071796;28;20673;-72
2022/01/07 05:58:10;;;;;;;8.70;6.47;;;1.20;1.00;;;;;;5074696;28;20207;-78
2022/01/07 06:00:37;;;;;;;9.43;6.13;;;1.10;1.00;;;;;;5070471;28;20201;-72
2022/01/07 06:03:05;;;;;;;7.63;4.80;;;1.10;1.00;;;;;;5070714;28;20670;-73
2022/01/07 06:05:32;;;;;;;9.57;7.47;;;1.30;1.00;;;;;;5070506;28;20203;-72
2022/01/07 06:07:59;;;;;;;11.50;7.37;;;1.30;1.00;;;;;;5070658;28;20251;-72
2022/01/07 06:10:26;;;;;;;13.30;6.33;;;1.40;1.00;;;;;;5070256;28;20205;-71
2022/01/07 06:12:53;;;;;;;10.00;6.30;;;1.40;1.00;;;;;;5069951;28;20780;-74
2022/01/07 06:15:20;;;;;;;15.33;7.17;;;1.50;1.00;;;;;;5075341;28;20259;-75
2022/01/07 06:17:54;;;;;;;16.73;8.27;;;1.50;1.00;;;;;;5081109;28;20237;-81
2022/01/07 06:20:23;;;;;;;16.67;8.73;;;1.60;1.00;;;;;;5090311;28;20213;-74
2022/01/07 06:22:51;;;;;;;10.70;8.50;;;1.70;1.00;;;;;;5085581;28;20672;-81
2022/01/07 06:25:19;;;;;;;12.87;9.53;;;1.60;1.00;;;;;;5090604;28;20205;-72
2022/01/07 06:27:46;;;;;;;13.23;8.60;;;1.60;1.00;;;;;;5090046;28;20205;-73
2022/01/07 06:30:14;;;;;;;12.07;7.37;;;1.70;1.00;;;;;;5090211;28;20564;-75
2022/01/07 06:32:43;;;;;;;12.73;7.93;;;1.70;1.00;;;;;;5089920;28;20569;-73
2022/01/07 06:35:11;;;;;;;13.03;8.50;;;1.70;1.00;;;;;;5089536;28;20211;-74
2022/01/07 06:37:39;;;;;;;13.67;7.93;;;1.80;1.00;;;;;;5090056;28;20281;-74
2022/01/07 06:40:08;;;;;;;14.17;8.27;;;1.70;1.00;;;;;;5090373;28;20209;-73
2022/01/07 06:42:36;;;;;;;10.33;8.00;;;1.80;1.00;;;;;;5090003;28;20613;-72
2022/01/07 06:45:06;;;;;;;11.20;7.70;;;1.70;1.00;;;;;;5089994;28;20269;-74
2022/01/07 06:47:34;;;;;;;9.40;8.30;;;1.70;1.00;;;;;;5089983;28;20669;-74
2022/01/07 06:50:01;;;;;;;10.57;8.17;;;1.90;1.00;;;;;;5090736;28;20232;-73
2022/01/07 06:52:29;;;;;;;13.67;9.87;;;1.90;1.00;;;;;;5092849;28;20295;-73
2022/01/07 06:54:58;;;;;;;10.77;9.40;;;1.90;1.00;;;;;;5093759;28;20205;-73
2022/01/07 06:57:25;;;;;;;13.13;8.40;;;1.90;1.00;;;;;;5094199;28;20205;-72
2022/01/07 06:59:52;;;;;;;12.90;9.80;;;1.80;1.00;;;;;;5093980;28;20201;-73
2022/01/07 07:02:26;;;;;;;15.57;7.80;;;1.90;1.00;;;;;;5094317;28;20217;-74
2022/01/07 07:04:56;;;;;;;11.47;7.43;;;1.80;1.00;;;;;;5094095;28;20208;-73
2022/01/07 07:07:24;;;;;;;11.40;7.63;;;1.50;1.00;;;;;;5093765;28;20306;-72
2022/01/07 07:09:50;;;;;;;11.83;7.90;;;1.50;1.00;;;;;;5089710;28;20263;-73
2022/01/07 07:12:19;;;;;;;12.90;6.37;;;1.40;1.00;;;;;;5092096;28;20278;-76
2022/01/07 07:14:46;;;;;;;11.93;6.30;;;1.40;1.00;;;;;;5092949;28;20224;-74
2022/01/07 07:17:14;;;;;;;8.13;5.03;;;1.30;1.00;;;;;;5093850;28;20391;-74
2022/01/07 07:19:42;;;;;;;8.73;5.30;;;1.30;1.00;;;;;;5093450;28;20209;-75
2022/01/07 07:22:09;;;;;;;8.37;4.63;;;1.40;1.00;;;;;;5093843;28;20281;-72
2022/01/07 07:24:37;;;;;;;6.33;4.10;;;1.40;1.00;;;;;;5085557;28;20596;-76
2022/01/07 07:27:05;;;;;;;6.60;4.77;;;1.50;1.00;;;;;;5092154;28;20251;-74
2022/01/07 07:29:33;;;;;;;7.13;4.53;;;1.50;1.00;;;;;;5093186;28;20205;-73
2022/01/07 07:32:06;;;;;;;10.93;5.40;;;1.50;1.00;;;;;;5093084;28;20756;-73
2022/01/07 07:37:14;;;;;;;6.60;4.17;;;1.30;1.00;;;;;;5080753;28;20223;-73
2022/01/07 07:39:41;;;;;;;31.17;17.10;;;1.40;1.00;;;;;;5093164;28;20205;-82
2022/01/07 07:42:08;;;;;;;17.73;8.40;;;1.60;1.00;;;;;;5092642;28;20209;-73
2022/01/07 07:44:37;;;;;;;7.97;6.17;;;1.70;1.00;;;;;;5092414;28;20741;-73
2022/01/07 07:47:04;;;;;;;9.00;5.20;;;1.90;1.00;;;;;;5093349;28;20573;-75
2022/01/07 07:49:32;;;;;;;14.03;6.27;;;1.70;1.00;;;;;;5092917;28;20263;-73
2022/01/07 07:51:59;;;;;;;10.03;5.87;;;1.70;1.00;;;;;;5092858;28;20267;-74
2022/01/07 07:54:26;;;;;;;11.87;6.83;;;1.90;1.00;;;;;;5092351;28;20212;-76
2022/01/07 07:56:57;;;;;;;10.13;8.03;;;1.90;1.00;;;;;;5093124;28;20254;-77
2022/01/07 07:59:26;;;;;;;10.47;7.33;;;1.90;1.00;;;;;;5088405;28;20289;-83
2022/01/07 08:01:56;;;;;;;12.90;7.13;;;1.90;1.00;;;;;;5083432;28;20613;-74
2022/01/07 08:04:24;;;;;;;10.80;7.00;;;2.10;1.00;;;;;;5081477;28;20255;-77
2022/01/07 08:06:51;;;;;;;11.40;7.77;;;2.40;1.00;;;;;;5080489;28;20312;-82
2022/01/07 08:09:19;;;;;;;14.70;8.27;;;2.70;1.00;;;;;;5075831;28;20210;-78
2022/01/07 08:11:52;;;;;;;10.70;7.07;;;2.70;1.00;;;;;;5088034;28;20205;-81
2022/01/07 08:17:06;;;;;;;12.40;7.23;;;2.80;1.00;;;;;;5071792;28;20217;-73
2022/01/07 08:19:34;;;;;;;10.53;6.50;;;2.80;1.00;;;;;;5088528;28;20288;-74
2022/01/07 08:22:01;;;;;;;10.77;6.10;;;3.00;1.00;;;;;;5090206;28;20322;-74
2022/01/07 08:24:28;;;;;;;7.50;5.20;;;3.20;1.00;;;;;;5086084;28;20547;-74
2022/01/07 08:26:55;;;;;;;9.40;5.63;;;3.30;1.00;;;;;;5072211;28;20202;-73
2022/01/07 08:29:24;;;;;;;9.47;5.37;;;3.20;1.00;;;;;;5072396;28;20239;-80
2022/01/07 08:34:56;;;;;;;7.77;4.70;;;3.10;1.00;;;;;;5071395;28;20592;-75
2022/01/07 08:37:24;;;;;;;8.40;5.33;;;3.10;1.00;;;;;;5072442;28;20208;-70
2022/01/07 08:39:53;;;;;;;7.83;5.77;;;3.10;1.00;;;;;;5073115;28;20733;-71
2022/01/07 08:42:22;;;;;;;12.97;7.83;;;3.00;1.00;;;;;;5080284;28;20211;-77
2022/01/07 08:44:51;;;;;;;13.93;8.00;;;3.10;1.00;;;;;;5079213;28;20688;-73
2022/01/07 08:47:19;;;;;;;7.23;4.90;;;3.20;1.00;;;;;;5083903;28;20237;-72
2022/01/07 08:49:47;;;;;;;7.27;5.63;;;3.30;1.00;;;;;;5070710;28;20267;-72
2022/01/07 08:52:14;;;;;;;11.63;6.10;;;3.30;1.00;;;;;;5075371;28;20261;-73
2022/01/07 08:54:41;;;;;;;7.90;5.57;;;3.40;1.00;;;;;;5079973;28;20259;-81
2022/01/07 08:57:08;;;;;;;11.83;9.33;;;3.50;1.00;;;;;;5087330;28;20201;-80
2022/01/07 08:59:35;;;;;;;12.63;8.93;;;3.50;1.00;;;;;;5071888;28;20202;-78
2022/01/07 09:02:02;;;;;;;19.60;13.43;;;3.60;1.00;;;;;;5080318;28;20206;-80
2022/01/07 09:04:29;;;;;;;12.83;9.13;;;3.50;1.00;;;;;;5082338;28;20213;-76
2022/01/07 09:06:58;;;;;;;21.50;9.33;;;3.60;1.00;;;;;;5076847;28;20633;-73
2022/01/07 09:09:25;;;;;;;15.57;8.10;;;3.50;1.00;;;;;;5073610;28;20202;-70
2022/01/07 09:11:52;;;;;;;12.93;8.80;;;3.70;1.00;;;;;;5071376;28;20669;-77
2022/01/07 09:14:19;;;;;;;13.30;8.07;;;3.70;1.00;;;;;;5070712;28;20705;-72
2022/01/07 09:16:46;;;;;;;11.97;8.93;;;3.80;1.00;;;;;;5070984;28;20263;-78
2022/01/07 09:19:12;;;;;;;13.37;7.87;;;3.70;1.00;;;;;;5071505;28;20206;-77
2022/01/07 09:21:39;;;;;;;13.30;8.33;;;4.10;1.00;;;;;;5075965;28;20263;-75
2022/01/07 09:24:08;;;;;;;17.20;10.00;;;4.30;1.00;;;;;;5076988;28;20260;-74
2022/01/07 09:26:35;;;;;;;14.53;9.10;;;4.40;1.00;;;;;;5087028;28;20314;-75
2022/01/07 09:29:03;;;;;;;12.10;9.60;;;4.50;1.00;;;;;;5071006;28;20202;-78
2022/01/07 09:31:30;;;;;;;17.47;9.53;;;4.70;1.00;;;;;;5069997;28;20681;-76
2022/01/07 09:33:57;;;;;;;15.50;8.20;;;4.40;1.00;;;;;;5079591;28;20232;-77
2022/01/07 09:36:24;;;;;;;17.37;11.47;;;4.60;1.00;;;;;;5081273;28;20700;-73
2022/01/07 09:38:51;;;;;;;14.57;7.63;;;4.60;1.00;;;;;;5085300;28;20209;-72
2022/01/07 09:41:20;;;;;;;19.00;9.20;;;4.60;1.00;;;;;;5086381;28;20228;-71
2022/01/07 09:43:47;;;;;;;12.50;7.93;;;4.70;1.00;;;;;;5070467;28;20275;-71
2022/01/07 09:46:15;;;;;;;12.60;7.70;;;5.30;1.00;;;;;;5070977;28;20206;-72
2022/01/07 09:48:42;;;;;;;11.23;6.47;;;5.80;1.00;;;;;;5070683;28;20285;-77
2022/01/07 09:51:10;;;;;;;6.90;4.57;;;5.50;1.00;;;;;;5070911;28;20248;-72
2022/01/07 09:53:37;;;;;;;10.80;5.43;;;5.60;1.00;;;;;;5070358;28;20295;-72
2022/01/07 09:56:04;;;;;;;8.03;5.57;;;5.60;1.00;;;;;;5070175;28;20210;-79
2022/01/07 09:58:34;;;;;;;14.00;7.53;;;5.70;1.00;;;;;;5070396;28;20213;-76
2022/01/07 10:01:05;;;;;;;15.33;8.47;;;5.90;1.00;;;;;;5070936;28;20197;-72
2022/01/07 10:03:39;;;;;;;10.87;7.43;;;6.00;1.00;;;;;;5070429;28;20259;-73
2022/01/07 10:06:18;;;;;;;8.17;6.30;;;6.10;1.00;;;;;;5070937;28;20205;-73
2022/01/07 10:08:46;;;;;;;11.43;6.23;;;6.10;1.00;;;;;;5069967;28;20976;-72
2022/01/07 10:11:16;;;;;;;13.37;6.17;;;6.00;1.00;;;;;;5070470;28;20213;-72
2022/01/07 10:13:46;;;;;;;10.37;6.57;;;5.80;1.00;;;;;;5070423;28;20660;-75
2022/01/07 10:16:15;;;;;;;15.03;9.50;;;5.80;1.00;;;;;;5072807;28;21079;-72
2022/01/07 10:18:43;;;;;;;11.97;10.50;;;5.70;1.00;;;;;;5086124;28;20205;-73
2022/01/07 10:21:11;;;;;;;13.43;9.37;;;5.40;1.00;;;;;;5073553;28;20210;-73
2022/01/07 10:23:39;;;;;;;21.90;9.87;;;5.10;1.00;;;;;;5079273;28;20209;-76
2022/01/07 10:26:14;;;;;;;16.37;7.10;;;4.90;1.00;;;;;;5086655;28;20204;-75
2022/01/07 10:28:41;;;;;;;8.47;6.77;;;5.00;1.00;;;;;;5091670;28;20287;-77
2022/01/07 10:31:11;;;;;;;13.03;7.80;;;5.40;1.00;;;;;;5094697;28;20250;-75
2022/01/07 10:33:39;;;;;;;11.03;9.47;;;5.60;1.00;;;;;;5089769;28;20222;-75
2022/01/07 10:36:18;;;;;;;9.73;6.20;;;6.00;1.00;;;;;;5074708;28;20206;-76
2022/01/07 10:38:52;;;;;;;8.57;7.00;;;6.30;1.00;;;;;;5073523;28;20213;-76
2022/01/07 10:41:20;;;;;;;12.40;7.47;;;6.30;1.00;;;;;;5074664;28;20202;-76
2022/01/07 10:43:48;;;;;;;8.63;7.73;;;6.00;1.00;;;;;;5073586;28;20268;-76
2022/01/07 10:46:20;;;;;;;16.07;11.67;;;5.70;1.00;;;;;;5074436;28;20263;-76
2022/01/07 10:48:50;;;;;;;11.67;9.87;;;5.60;1.00;;;;;;5081906;28;20230;-73
2022/01/07 10:51:20;;;;;;;12.23;7.87;;;5.70;1.00;;;;;;5093798;28;20228;-75
2022/01/07 10:53:50;;;;;;;12.13;7.17;;;5.60;1.00;;;;;;5077609;28;20237;-76
2022/01/07 10:56:19;;;;;;;12.17;8.30;;;5.80;1.00;;;;;;5079190;28;20613;-77
2022/01/07 10:59:07;;;;;;;16.33;9.37;;;6.00;1.00;;;;;;5093665;28;20211;-73
2022/01/07 11:01:37;;;;;;;9.77;6.23;;;6.60;1.00;;;;;;5093598;28;20664;-74
2022/01/07 11:04:08;;;;;;;7.57;6.03;;;6.90;1.00;;;;;;5079842;28;20254;-73
2022/01/07 11:06:36;;;;;;;7.57;4.63;;;6.40;1.00;;;;;;5093086;28;20296;-75
2022/01/07 11:09:07;;;;;;;12.87;7.30;;;6.30;1.00;;;;;;5093587;28;20596;-74
2022/01/07 11:11:34;;;;;;;8.80;6.10;;;6.30;1.00;;;;;;5084792;28;20205;-75
2022/01/07 11:14:08;;;;;;;12.80;6.93;;;6.30;1.00;;;;;;5093482;28;20233;-76
2022/01/07 11:16:38;;;;;;;7.87;6.33;;;6.10;1.00;;;;;;5091319;28;20284;-73
2022/01/07 11:19:07;;;;;;;13.77;6.83;;;6.00;1.00;;;;;;5093555;28;20285;-73
2022/01/07 11:21:35;;;;;;;10.23;7.70;;;5.90;1.00;;;;;;5088934;28;20263;-74
2022/01/07 11:24:36;;;;;;;10.53;8.10;;;5.80;1.00;;;;;;5092002;28;20205;-76
2022/01/07 11:27:05;;;;;;;12.20;9.17;;;5.70;1.00;;;;;;5093819;28;20217;-77
2022/01/07 11:29:35;;;;;;;12.03;8.87;;;5.70;1.00;;;;;;5079921;28;20755;-75
2022/01/07 11:32:32;;;;;;;11.73;7.97;;;6.00;1.00;;;;;;5073586;28;20194;-76
2022/01/07 11:35:45;;;;;;;11.37;8.07;;;6.20;1.00;;;;;;5073085;28;20237;-77
2022/01/07 11:38:39;;;;;;;11.77;7.57;;;6.20;1.00;;;;;;5083425;28;20213;-77
2022/01/07 11:41:11;;;;;;;9.47;6.67;;;6.10;1.00;;;;;;5076678;28;20206;-75
2022/01/07 11:43:44;;;;;;;9.07;6.90;;;6.20;1.00;;;;;;5072688;28;20214;-73
2022/01/07 11:46:32;;;;;;;13.77;8.60;;;6.20;1.00;;;;;;5073129;28;20206;-73
2022/01/07 11:49:02;;;;;;;12.93;7.80;;;6.10;1.00;;;;;;5073144;28;20206;-75
2022/01/07 11:51:43;;;;;;;11.33;7.73;;;6.10;1.00;;;;;;5075977;28;20558;-75
2022/01/07 11:54:14;;;;;;;9.53;6.97;;;6.00;1.00;;;;;;5083940;28;20236;-74
2022/01/07 11:56:43;;;;;;;11.47;7.93;;;6.10;1.00;;;;;;5075863;28;20297;-71
2022/01/07 11:59:23;;;;;;;17.03;9.97;;;6.00;1.00;;;;;;5088208;28;20205;-72
2022/01/07 12:02:04;;;;;;;11.03;8.77;;;5.90;1.00;;;;;;5091338;28;20647;-72
2022/01/07 12:04:34;;;;;;;11.83;7.57;;;6.10;1.00;;;;;;5088794;28;20296;-72
2022/01/07 12:07:04;;;;;;;10.10;8.30;;;6.30;1.00;;;;;;5092520;28;20569;-72
2022/01/07 12:09:37;;;;;;;13.27;10.17;;;6.40;1.00;;;;;;5092453;28;20267;-71
2022/01/07 12:12:08;;;;;;;16.53;10.87;;;6.50;1.00;;;;;;5092968;28;20210;-72
2022/01/07 12:14:38;;;;;;;14.47;11.23;;;6.50;1.00;;;;;;5090053;28;20233;-72
2022/01/07 12:17:09;;;;;;;17.70;9.07;;;6.60;1.00;;;;;;5092500;28;20197;-72
2022/01/07 12:20:18;;;;;;;13.60;9.03;;;6.60;1.00;;;;;;5090937;28;20209;-71
2022/01/07 12:22:52;;;;;;;9.57;7.13;;;6.70;1.00;;;;;;5091507;28;20292;-71
2022/01/07 12:25:19;;;;;;;9.83;6.40;;;6.70;1.00;;;;;;5093010;28;20623;-72
2022/01/07 12:27:47;;;;;;;12.60;9.50;;;6.80;1.00;;;;;;5092250;28;20267;-71
2022/01/07 12:30:15;;;;;;;10.57;7.67;;;7.10;1.00;;;;;;5092589;28;20248;-71
2022/01/07 12:32:42;;;;;;;9.03;6.97;;;7.10;1.00;;;;;;5087098;28;20622;-71
2022/01/07 12:35:11;;;;;;;10.50;7.10;;;7.00;1.00;;;;;;5087081;28;20672;-72
2022/01/07 12:37:39;;;;;;;10.90;6.50;;;7.00;1.00;;;;;;5091050;28;20622;-73
2022/01/07 12:40:09;;;;;;;9.80;6.70;;;7.20;1.00;;;;;;5081669;28;20345;-71
2022/01/07 12:42:45;;;;;;;10.57;6.90;;;7.50;1.00;;;;;;5078410;28;20260;-71
2022/01/07 12:45:17;;;;;;;8.97;7.23;;;7.50;1.00;;;;;;5079973;28;20217;-71
2022/01/07 12:47:44;;;;;;;9.63;6.43;;;7.50;1.00;;;;;;5076768;28;20266;-72
2022/01/07 12:50:12;;;;;;;7.70;6.57;;;7.50;1.00;;;;;;5085490;28;20306;-71
2022/01/07 12:52:42;;;;;;;8.70;6.87;;;7.60;1.00;;;;;;5087824;28;20259;-71
2022/01/07 12:55:15;;;;;;;12.87;6.50;;;7.90;1.00;;;;;;5088704;28;20604;-72
2022/01/07 12:57:46;;;;;;;7.97;5.63;;;8.00;1.00;;;;;;5078809;28;20259;-72
2022/01/07 13:00:17;;;;;;;9.00;5.43;;;8.10;1.00;;;;;;5070996;28;20658;-73
2022/01/07 13:02:45;;;;;;;5.57;4.70;;;7.90;1.00;;;;;;5069555;28;20214;-72
2022/01/07 13:05:20;;;;;;;5.57;3.60;;;7.60;1.00;;;;;;5069847;28;20280;-71
2022/01/07 13:07:49;;;;;;;15.90;9.77;;;7.30;1.00;;;;;;5069892;28;20255;-72
2022/01/07 13:10:23;;;;;;;7.90;5.10;;;7.20;1.00;;;;;;5070129;28;20202;-71
2022/01/07 13:13:00;;;;;;;3.77;2.90;;;7.00;1.00;;;;;;5072959;28;20248;-72
2022/01/07 13:15:48;;;;;;;5.87;3.20;;;7.00;1.00;;;;;;5073227;28;20237;-72